CheckWX is a tool to help pilots better visualize weather data.  It is not intended as a substitute for an official pre-flight weather briefing.

04:56:50 UTC

LTAT TAF
Malatya Erhaç Airport
Malatya, Turkey
TAF LTAT 222240Z 2300/2324 VRB02KT CAVOK BECMG 2306/2308 FEW040 BKN100 BECMG 2317/2319 BKN040 BKN100

Mar-23@
00:00 UTC

Mar-23 @ 00:00 UTC

Mar-23@
06:00 UTC

Mar-23 @ 06:00 UTC

TAF LTAT 222240Z 2300/2324 VRB02KT CAVOK
Wind
  • Variable at 2 KTS
Conditions
No significant weather
Cloud Levels
  • No significant clouds

Mar-23@
06:00 UTC

Mar-23 @ 06:00 UTC

Mar-23@
17:00 UTC

Mar-23 @ 17:00 UTC

BECMG 2306/2308 FEW040 BKN100

Becoming

Becoming Conditions expected by Sat, Mar 23, 2019 @ 08:00 UTC

Wind
  • Variable at 2 KTS
Conditions
No significant weather
Cloud Levels
  • Few at 4,000' AGL
  • Broken at 10,000' AGL

Mar-23@
17:00 UTC

Mar-23 @ 17:00 UTC

Mar-24@
00:00 UTC

Mar-24 @ 00:00 UTC

BECMG 2317/2319 BKN040 BKN100

Becoming

Becoming Conditions expected by Sat, Mar 23, 2019 @ 19:00 UTC

Wind
  • Variable at 2 KTS
Conditions
No significant weather
Cloud Levels
  • Broken at 4,000' AGL
  • Broken at 10,000' AGL